createdAt,value
2023-04-21T00:00:55.087Z,11.76
2023-04-21T00:03:23.983Z,12.21
2023-04-21T00:05:51.452Z,12.59
2023-04-21T00:08:19.021Z,12.46
2023-04-21T00:10:46.875Z,12.45
2023-04-21T00:13:14.329Z,12.41
2023-04-21T00:15:41.338Z,12.38
2023-04-21T00:18:08.037Z,12.37
2023-04-21T00:20:35.457Z,12.88
2023-04-21T00:23:02.242Z,13.00
2023-04-21T00:25:28.754Z,12.30
2023-04-21T00:27:55.302Z,12.83
2023-04-21T00:30:22.092Z,13.15
2023-04-21T00:32:48.707Z,12.73
2023-04-21T00:35:15.330Z,12.48
2023-04-21T00:37:41.820Z,12.93
2023-04-21T00:40:09.290Z,13.14
2023-04-21T00:42:35.850Z,13.44
2023-04-21T00:45:03.906Z,13.48
2023-04-21T00:47:31.050Z,13.55
2023-04-21T00:54:05.462Z,13.39
2023-04-21T00:56:33.550Z,13.36
2023-04-21T00:59:00.920Z,13.73
2023-04-21T01:01:32.012Z,13.85
2023-04-21T01:04:00.027Z,13.96
2023-04-21T01:06:32.340Z,13.91
2023-04-21T01:08:58.850Z,14.18
2023-04-21T01:11:26.378Z,13.94
2023-04-21T01:13:56.727Z,13.79
2023-04-21T01:16:24.233Z,14.01
2023-04-21T01:18:53.320Z,13.30
2023-04-21T01:21:21.613Z,13.90
2023-04-21T01:23:48.186Z,13.84
2023-04-21T01:26:18.357Z,13.33
2023-04-21T01:28:45.016Z,13.78
2023-04-21T01:31:12.050Z,13.73
2023-04-21T01:33:38.673Z,13.88
2023-04-21T01:36:05.601Z,14.22
2023-04-21T01:38:32.114Z,14.14
2023-04-21T01:40:58.783Z,13.91
2023-04-21T01:43:25.796Z,13.83
2023-04-21T01:45:53.366Z,13.88
2023-04-21T01:48:20.088Z,13.58
2023-04-21T01:50:46.774Z,13.17
2023-04-21T01:53:13.571Z,13.67
2023-04-21T01:55:40.243Z,13.71
2023-04-21T01:58:07.700Z,14.21
2023-04-21T02:00:34.296Z,14.21
2023-04-21T02:03:00.995Z,13.66
2023-04-21T02:05:27.755Z,14.25
2023-04-21T02:07:54.684Z,14.10
2023-04-21T02:10:21.390Z,14.39
2023-04-21T02:12:48.077Z,14.31
2023-04-21T02:15:14.717Z,14.59
2023-04-21T02:17:42.898Z,14.54
2023-04-21T02:20:12.023Z,14.51
2023-04-21T02:22:38.898Z,14.58
2023-04-21T02:25:06.162Z,14.02
2023-04-21T02:27:32.726Z,14.26
2023-04-21T02:29:59.675Z,14.40
2023-04-21T02:32:26.519Z,14.26
2023-04-21T02:34:53.336Z,14.19
2023-04-21T02:37:21.141Z,14.00
2023-04-21T02:39:48.121Z,13.87
2023-04-21T02:42:14.708Z,13.76
2023-04-21T02:44:42.762Z,13.73
2023-04-21T02:47:09.486Z,13.58
2023-04-21T02:49:41.004Z,13.32
2023-04-21T02:52:07.920Z,13.00
2023-04-21T02:54:34.501Z,13.40
2023-04-21T02:57:02.033Z,13.23
2023-04-21T02:59:29.084Z,13.34
2023-04-21T03:01:55.849Z,13.14
2023-04-21T03:04:24.572Z,13.21
2023-04-21T03:06:52.378Z,13.19
2023-04-21T03:09:19.235Z,12.64
2023-04-21T03:11:45.966Z,12.74
2023-04-21T03:14:13.001Z,12.59
2023-04-21T03:16:39.683Z,12.51
2023-04-21T03:19:06.515Z,12.13
2023-04-21T03:21:33.130Z,12.72
2023-04-21T03:23:59.673Z,12.39
2023-04-21T03:26:26.378Z,12.13
2023-04-21T03:28:53.189Z,11.96
2023-04-21T03:31:19.849Z,12.45
2023-04-21T03:33:46.410Z,11.98
2023-04-21T03:36:13.069Z,11.87
2023-04-21T03:38:39.608Z,11.61
2023-04-21T03:41:08.831Z,11.33
2023-04-21T03:43:36.239Z,11.40
2023-04-21T03:46:03.372Z,11.94
2023-04-21T03:48:30.048Z,12.03
2023-04-21T03:50:56.668Z,11.50
2023-04-21T03:53:23.370Z,11.03
2023-04-21T03:55:51.100Z,12.00
2023-04-21T03:58:18.664Z,11.54
2023-04-21T04:00:45.330Z,11.60
2023-04-21T04:03:12.194Z,11.66
2023-04-21T04:05:39.071Z,11.69
2023-04-21T04:08:06.665Z,11.87
2023-04-21T04:10:33.181Z,12.15
2023-04-21T04:13:00.113Z,12.43
2023-04-21T04:15:27.313Z,12.32
2023-04-21T04:17:53.986Z,12.67
2023-04-21T04:20:20.649Z,12.62
2023-04-21T04:22:47.500Z,12.64
2023-04-21T04:25:16.933Z,12.57
2023-04-21T04:27:46.532Z,12.59
2023-04-21T04:30:14.020Z,12.28
2023-04-21T04:32:41.481Z,11.94
2023-04-21T04:35:10.164Z,11.63
2023-04-21T04:37:37.490Z,11.06
2023-04-21T04:40:12.320Z,10.79
2023-04-21T04:42:40.139Z,11.14
2023-04-21T04:45:08.766Z,11.71
2023-04-21T04:47:36.000Z,11.17
2023-04-21T04:50:03.494Z,11.65
2023-04-21T04:52:30.357Z,11.80
2023-04-21T04:54:56.929Z,11.85
2023-04-21T04:57:23.580Z,11.75
2023-04-21T04:59:55.397Z,11.82
2023-04-21T05:02:24.476Z,11.98
2023-04-21T05:04:51.903Z,11.87
2023-04-21T05:07:18.813Z,11.61
2023-04-21T05:09:46.118Z,12.10
2023-04-21T05:12:12.880Z,12.02
2023-04-21T05:14:39.719Z,12.38
2023-04-21T05:17:06.427Z,12.58
2023-04-21T05:19:36.288Z,12.45
2023-04-21T05:22:03.059Z,12.44
2023-04-21T05:24:29.615Z,12.43
2023-04-21T05:26:56.393Z,12.17
2023-04-21T05:29:22.963Z,12.35
2023-04-21T05:31:49.601Z,12.26
2023-04-21T05:34:16.420Z,12.82
2023-04-21T05:36:43.219Z,12.63
2023-04-21T05:39:09.900Z,13.05
2023-04-21T05:41:36.658Z,12.96
2023-04-21T05:44:03.225Z,12.55
2023-04-21T05:46:30.350Z,12.23
2023-04-21T05:48:57.162Z,12.66
2023-04-21T05:51:23.781Z,12.81
2023-04-21T05:53:50.511Z,13.01
2023-04-21T05:56:17.336Z,13.17
2023-04-21T05:58:43.851Z,12.48
2023-04-21T06:01:10.724Z,13.22
2023-04-21T06:03:37.380Z,13.26
2023-04-21T06:06:06.041Z,12.76
2023-04-21T06:08:32.939Z,13.40
2023-04-21T06:10:59.554Z,13.52
2023-04-21T06:13:27.553Z,13.48
2023-04-21T06:15:55.062Z,13.40
2023-04-21T06:18:21.698Z,13.83
2023-04-21T06:20:52.214Z,13.79
2023-04-21T06:23:20.649Z,13.87
2023-04-21T06:25:47.672Z,14.01
2023-04-21T06:28:14.594Z,14.12
2023-04-21T06:30:41.155Z,13.59
2023-04-21T06:33:08.188Z,14.13
2023-04-21T06:35:34.756Z,14.49
2023-04-21T06:38:01.523Z,14.65
2023-04-21T06:40:28.245Z,14.40
2023-04-21T06:42:54.757Z,14.73
2023-04-21T06:45:21.443Z,14.39
2023-04-21T06:47:48.067Z,14.70
2023-04-21T06:50:14.579Z,14.85
2023-04-21T06:52:41.371Z,15.00
2023-04-21T06:55:08.368Z,14.76
2023-04-21T06:57:35.036Z,14.69
2023-04-21T07:00:01.778Z,15.01
2023-04-21T07:02:28.606Z,14.96
2023-04-21T07:04:55.638Z,13.01
2023-04-21T07:07:22.247Z,14.46
2023-04-21T07:09:48.977Z,14.64
2023-04-21T07:12:16.012Z,15.18
2023-04-21T07:14:42.821Z,15.25
2023-04-21T07:17:09.862Z,15.14
2023-04-21T07:19:37.130Z,15.29
2023-04-21T07:22:04.131Z,15.34
2023-04-21T07:24:31.088Z,15.12
2023-04-21T07:26:58.078Z,15.13
2023-04-21T07:29:24.711Z,15.74
2023-04-21T07:31:51.828Z,15.46
2023-04-21T07:34:18.398Z,15.74
2023-04-21T07:36:45.562Z,15.94
2023-04-21T07:39:12.374Z,15.92
2023-04-21T07:41:38.952Z,15.66
2023-04-21T07:44:05.965Z,15.63
2023-04-21T07:46:32.652Z,15.80
2023-04-21T07:49:01.397Z,15.87
2023-04-21T07:51:29.666Z,16.11
2023-04-21T07:53:56.294Z,15.75
2023-04-21T07:56:23.035Z,15.67
2023-04-21T07:58:49.800Z,15.36
2023-04-21T08:01:16.856Z,16.42
2023-04-21T08:03:43.813Z,16.28
2023-04-21T08:06:11.017Z,16.26
2023-04-21T08:08:37.837Z,16.04
2023-04-21T08:11:04.553Z,15.97
2023-04-21T08:13:32.298Z,16.58
2023-04-21T08:16:00.227Z,15.94
2023-04-21T08:18:26.896Z,16.06
2023-04-21T08:20:53.643Z,15.70
2023-04-21T08:23:20.419Z,16.18
2023-04-21T08:25:47.152Z,15.62
2023-04-21T08:28:15.570Z,15.25
2023-04-21T08:30:42.743Z,16.56
2023-04-21T08:33:13.574Z,16.58
2023-04-21T08:35:54.836Z,16.57
2023-04-21T08:38:28.314Z,16.60
2023-04-21T08:40:56.233Z,17.12
2023-04-21T08:43:23.050Z,16.94
2023-04-21T08:45:50.381Z,17.15
2023-04-21T08:48:20.068Z,17.22
2023-04-21T08:50:48.708Z,17.09
2023-04-21T08:53:16.210Z,16.79
2023-04-21T08:55:43.353Z,16.80
2023-04-21T08:58:10.154Z,16.73
2023-04-21T09:00:36.893Z,16.60
2023-04-21T09:03:10.688Z,17.24
2023-04-21T09:05:43.322Z,16.75
2023-04-21T09:08:12.701Z,16.80
2023-04-21T09:10:49.349Z,16.99
2023-04-21T09:13:18.106Z,17.30
2023-04-21T09:15:49.860Z,17.17
2023-04-21T09:18:17.462Z,17.21
2023-04-21T09:20:45.389Z,17.21
2023-04-21T09:23:13.037Z,17.07
2023-04-21T09:25:41.228Z,17.27
2023-04-21T09:28:12.866Z,17.36
2023-04-21T09:30:41.127Z,17.47
2023-04-21T09:33:20.095Z,17.40
2023-04-21T09:35:54.790Z,16.99
2023-04-21T09:38:22.305Z,16.97
2023-04-21T09:40:59.049Z,16.57
2023-04-21T09:43:26.149Z,17.00
2023-04-21T09:45:54.120Z,16.63
2023-04-21T09:48:22.654Z,16.54
2023-04-21T09:53:22.019Z,17.39
2023-04-21T09:55:51.707Z,17.89
2023-04-21T09:58:20.649Z,17.34
2023-04-21T10:00:47.550Z,17.39
2023-04-21T10:03:14.591Z,18.06
2023-04-21T10:05:43.025Z,18.39
2023-04-21T10:08:11.661Z,18.43
2023-04-21T10:10:39.005Z,19.42
2023-04-21T10:13:06.299Z,19.78
2023-04-21T10:15:36.012Z,19.84
2023-04-21T10:18:22.105Z,20.68
2023-04-21T10:21:03.998Z,21.96
2023-04-21T10:23:36.612Z,22.70
2023-04-21T10:26:03.540Z,22.42
2023-04-21T10:28:41.044Z,22.85
2023-04-21T10:31:29.530Z,23.40
2023-04-21T10:34:17.314Z,23.16
2023-04-21T10:36:47.111Z,21.27
2023-04-21T10:39:38.616Z,22.40
2023-04-21T10:42:19.816Z,21.50
2023-04-21T10:44:53.726Z,21.61
2023-04-21T10:47:45.428Z,22.80
2023-04-21T10:50:17.905Z,23.08
2023-04-21T10:52:54.146Z,24.22
2023-04-21T10:55:22.071Z,24.17
2023-04-21T10:57:49.515Z,25.32
2023-04-21T11:00:19.188Z,25.75
2023-04-21T11:02:57.192Z,26.67
2023-04-21T11:05:28.584Z,26.95
2023-04-21T11:08:05.983Z,26.67
2023-04-21T11:10:55.333Z,26.35
2023-04-21T11:13:27.491Z,25.71
2023-04-21T11:16:06.396Z,24.57
2023-04-21T11:18:40.106Z,24.77
2023-04-21T11:21:10.360Z,23.09
2023-04-21T11:23:41.389Z,24.16
2023-04-21T11:26:08.232Z,23.97
2023-04-21T11:28:34.880Z,24.55
2023-04-21T11:31:01.493Z,24.13
2023-04-21T11:33:36.806Z,25.56
2023-04-21T11:36:05.792Z,25.22
2023-04-21T11:38:40.698Z,24.29
2023-04-21T11:41:09.989Z,25.41
2023-04-21T11:43:37.509Z,25.86
2023-04-21T11:46:23.880Z,25.17
2023-04-21T11:49:04.842Z,23.60
2023-04-21T11:51:36.234Z,23.09
2023-04-21T11:54:04.939Z,22.09
2023-04-21T11:56:38.441Z,21.35
2023-04-21T11:59:10.019Z,21.52
2023-04-21T12:01:44.179Z,21.07
2023-04-21T12:04:15.838Z,21.63
2023-04-21T12:06:42.640Z,21.53
2023-04-21T12:09:17.313Z,22.02
2023-04-21T12:11:51.127Z,22.53
2023-04-21T12:14:19.653Z,22.48
2023-04-21T12:16:50.421Z,23.05
2023-04-21T12:19:24.305Z,22.58
2023-04-21T12:21:56.177Z,23.25
2023-04-21T12:24:23.954Z,22.58
2023-04-21T12:26:50.619Z,23.33
2023-04-21T12:29:17.689Z,23.75
2023-04-21T12:31:44.281Z,24.19
2023-04-21T12:34:11.337Z,23.66
2023-04-21T12:36:38.765Z,23.59
2023-04-21T12:39:06.145Z,24.36
2023-04-21T12:41:34.866Z,24.61
2023-04-21T12:44:01.567Z,23.68
2023-04-21T12:46:28.518Z,24.37
2023-04-21T12:48:56.127Z,22.98
2023-04-21T12:51:22.885Z,23.39
2023-04-21T12:53:49.897Z,23.82
2023-04-21T12:56:16.828Z,24.13
2023-04-21T12:58:43.558Z,24.03
2023-04-21T13:01:12.140Z,24.36
2023-04-21T13:03:39.207Z,22.92
2023-04-21T13:06:06.351Z,21.52
2023-04-21T13:08:33.010Z,21.43
2023-04-21T13:10:59.678Z,21.72
2023-04-21T13:13:26.783Z,21.89
2023-04-21T13:15:53.772Z,20.99
2023-04-21T13:18:20.536Z,21.95
2023-04-21T13:20:47.064Z,21.77
2023-04-21T13:23:14.766Z,22.81
2023-04-21T13:25:41.781Z,22.98
2023-04-21T13:28:08.462Z,22.72
2023-04-21T13:30:36.264Z,23.36
2023-04-21T13:33:03.993Z,23.47
2023-04-21T13:35:30.774Z,23.57
2023-04-21T13:37:57.352Z,23.18
2023-04-21T13:40:23.974Z,24.50
2023-04-21T13:42:50.732Z,24.95
2023-04-21T13:45:18.741Z,25.29
2023-04-21T13:47:45.369Z,23.47
2023-04-21T13:50:13.112Z,24.46
2023-04-21T13:52:39.731Z,24.95
2023-04-21T13:55:06.822Z,25.39
2023-04-21T13:57:33.416Z,24.75
2023-04-21T14:00:00.066Z,24.52
2023-04-21T14:02:26.939Z,24.40
2023-04-21T14:04:54.349Z,24.66
2023-04-21T14:07:22.625Z,24.46
2023-04-21T14:09:51.719Z,23.60
2023-04-21T14:12:18.967Z,24.07
2023-04-21T14:14:45.589Z,23.84
2023-04-21T14:17:12.747Z,23.97
2023-04-21T14:19:39.491Z,23.71
2023-04-21T14:22:06.389Z,23.74
2023-04-21T14:24:32.997Z,23.45
2023-04-21T14:26:59.644Z,23.00
2023-04-21T14:29:26.177Z,22.63
2023-04-21T14:31:57.634Z,23.19
2023-04-21T14:34:26.040Z,22.65
2023-04-21T14:36:53.548Z,23.02
2023-04-21T14:39:20.190Z,22.84
2023-04-21T14:41:46.692Z,22.92
2023-04-21T14:44:13.237Z,23.39
2023-04-21T14:46:39.962Z,23.33
2023-04-21T14:49:06.988Z,22.97
2023-04-21T14:51:33.699Z,23.40
2023-04-21T14:54:00.375Z,22.70
2023-04-21T14:56:27.071Z,23.06
2023-04-21T14:58:53.641Z,22.40
2023-04-21T15:01:20.269Z,21.84
2023-04-21T15:03:47.189Z,21.84
2023-04-21T15:06:16.105Z,21.81
2023-04-21T15:08:42.840Z,22.06
2023-04-21T15:11:09.887Z,22.33
2023-04-21T15:13:36.482Z,23.22
2023-04-21T15:16:03.405Z,23.76
2023-04-21T15:18:29.874Z,23.47
2023-04-21T15:20:56.343Z,23.43
2023-04-21T15:23:22.965Z,22.86
2023-04-21T15:25:49.466Z,23.46
2023-04-21T15:28:15.976Z,23.25
2023-04-21T15:30:42.517Z,23.55
2023-04-21T15:33:11.331Z,23.56
2023-04-21T15:35:37.989Z,23.34
2023-04-21T15:38:06.328Z,22.98
2023-04-21T15:40:32.939Z,23.16
2023-04-21T15:42:59.468Z,23.51
2023-04-21T15:45:26.134Z,23.57
2023-04-21T15:47:53.791Z,23.59
2023-04-21T15:50:20.664Z,23.43
2023-04-21T15:52:47.210Z,23.47
2023-04-21T15:55:13.889Z,23.48
2023-04-21T15:57:40.399Z,23.44
2023-04-21T16:00:07.970Z,23.25
2023-04-21T16:02:34.752Z,23.13
2023-04-21T16:05:02.390Z,23.47
2023-04-21T16:07:29.720Z,23.55
2023-04-21T16:09:56.331Z,23.48
2023-04-21T16:12:24.319Z,23.97
2023-04-21T16:14:57.640Z,23.82
2023-04-21T16:17:31.998Z,24.05
2023-04-21T16:19:58.690Z,24.47
2023-04-21T16:22:25.640Z,24.11
2023-04-21T16:24:53.180Z,23.99
2023-04-21T16:27:19.929Z,23.08
2023-04-21T16:29:46.715Z,23.70
2023-04-21T16:32:13.246Z,22.51
2023-04-21T16:34:40.801Z,22.59
2023-04-21T16:37:08.165Z,22.52
2023-04-21T16:39:34.653Z,22.21
2023-04-21T16:42:02.066Z,21.64
2023-04-21T16:44:29.169Z,22.14
2023-04-21T16:46:55.764Z,21.93
2023-04-21T16:49:22.840Z,21.36
2023-04-21T16:51:49.411Z,20.43
2023-04-21T16:54:15.899Z,20.00
2023-04-21T16:56:42.425Z,18.73
2023-04-21T16:59:09.104Z,19.24
2023-04-21T17:01:35.851Z,18.61
2023-04-21T17:04:02.831Z,17.68
2023-04-21T17:06:30.033Z,17.93
2023-04-21T17:08:59.807Z,17.89
2023-04-21T17:11:27.654Z,18.36
2023-04-21T17:13:54.789Z,17.73
2023-04-21T17:16:21.626Z,17.14
2023-04-21T17:18:48.213Z,17.17
2023-04-21T17:21:14.790Z,17.00
2023-04-21T17:23:41.426Z,17.03
2023-04-21T17:26:08.799Z,17.30
2023-04-21T17:28:38.188Z,17.24
2023-04-21T17:31:15.033Z,16.39
2023-04-21T17:33:42.472Z,16.86
2023-04-21T17:36:09.410Z,17.54
2023-04-21T17:38:36.193Z,16.90
2023-04-21T17:41:04.513Z,16.72
2023-04-21T17:43:31.053Z,17.46
2023-04-21T17:45:57.643Z,17.24
2023-04-21T17:48:24.158Z,17.81
2023-04-21T17:50:51.397Z,17.85
2023-04-21T17:53:19.032Z,17.77
2023-04-21T17:55:45.629Z,17.68
2023-04-21T17:58:12.586Z,17.66
2023-04-21T18:00:40.519Z,17.40
2023-04-21T18:03:07.290Z,17.62
2023-04-21T18:05:34.165Z,17.52
2023-04-21T18:08:00.828Z,17.73
2023-04-21T18:10:29.582Z,17.63
2023-04-21T18:12:56.381Z,17.87
2023-04-21T18:15:22.928Z,17.68
2023-04-21T18:17:49.569Z,17.61
2023-04-21T18:20:16.260Z,17.52
2023-04-21T18:22:43.755Z,17.50
2023-04-21T18:25:11.765Z,17.41
2023-04-21T18:27:39.327Z,17.36
2023-04-21T18:30:06.691Z,17.36
2023-04-21T18:32:36.558Z,17.27
2023-04-21T18:35:04.623Z,17.22
2023-04-21T18:37:31.335Z,16.61
2023-04-21T18:39:57.811Z,16.89
2023-04-21T18:42:25.385Z,16.41
2023-04-21T18:44:52.758Z,16.78
2023-04-21T18:47:20.861Z,16.75
2023-04-21T18:49:47.520Z,16.64
2023-04-21T18:52:14.344Z,16.46
2023-04-21T18:54:41.030Z,16.35
2023-04-21T18:57:08.341Z,16.66
2023-04-21T18:59:35.492Z,16.62
2023-04-21T19:02:03.963Z,16.51
2023-04-21T19:04:31.289Z,16.63
2023-04-21T19:06:58.663Z,16.65
2023-04-21T19:09:27.228Z,16.63
2023-04-21T19:11:53.768Z,16.72
2023-04-21T19:14:20.358Z,16.72
2023-04-21T19:16:48.794Z,16.28
2023-04-21T19:19:15.757Z,16.20
2023-04-21T19:21:42.258Z,16.15
2023-04-21T19:24:08.876Z,16.36
2023-04-21T19:26:35.927Z,16.44
2023-04-21T19:29:02.446Z,16.52
2023-04-21T19:31:29.002Z,16.66
2023-04-21T19:33:55.645Z,16.36
2023-04-21T19:36:22.378Z,16.55
2023-04-21T19:38:49.790Z,16.47
2023-04-21T19:41:16.354Z,16.66
2023-04-21T19:43:43.034Z,16.56
2023-04-21T19:46:10.271Z,16.50
2023-04-21T19:48:39.959Z,16.55
2023-04-21T19:51:08.628Z,15.91
2023-04-21T19:53:35.188Z,16.56
2023-04-21T19:56:01.824Z,16.38
2023-04-21T19:58:39.544Z,16.71
2023-04-21T20:01:07.815Z,16.63
2023-04-21T20:03:34.858Z,16.67
2023-04-21T20:06:02.214Z,16.85
2023-04-21T20:08:29.605Z,16.87
2023-04-21T20:10:56.344Z,17.02
2023-04-21T20:13:24.468Z,16.96
2023-04-21T20:15:51.524Z,16.81
2023-04-21T20:18:18.383Z,16.20
2023-04-21T20:20:46.466Z,16.63
2023-04-21T20:23:13.427Z,16.65
2023-04-21T20:25:40.156Z,16.04
2023-04-21T20:28:06.843Z,15.82
2023-04-21T20:30:33.575Z,15.78
2023-04-21T20:33:00.540Z,15.39
2023-04-21T20:35:27.164Z,14.56
2023-04-21T20:37:54.087Z,14.51
2023-04-21T20:40:21.612Z,14.51
2023-04-21T20:42:48.830Z,14.57
2023-04-21T20:45:17.516Z,14.67
2023-04-21T20:47:44.258Z,14.99
2023-04-21T20:50:11.043Z,15.06
2023-04-21T20:52:37.814Z,15.40
2023-04-21T20:55:04.812Z,15.62
2023-04-21T20:57:31.490Z,15.65
2023-04-21T20:59:58.115Z,15.94
2023-04-21T21:02:24.958Z,16.05
2023-04-21T21:04:51.633Z,16.61
2023-04-21T21:07:18.262Z,16.26
2023-04-21T21:09:45.093Z,16.42
2023-04-21T21:12:11.795Z,16.44
2023-04-21T21:14:38.974Z,16.34
2023-04-21T21:17:05.765Z,16.91
2023-04-21T21:19:32.475Z,16.85
2023-04-21T21:21:59.076Z,16.66
2023-04-21T21:24:26.826Z,16.86
2023-04-21T21:26:53.384Z,16.81
2023-04-21T21:29:20.216Z,16.25
2023-04-21T21:31:46.927Z,16.73
2023-04-21T21:34:13.664Z,16.86
2023-04-21T21:36:40.431Z,16.69
2023-04-21T21:39:09.612Z,16.99
2023-04-21T21:41:38.224Z,16.96
2023-04-21T21:44:04.844Z,17.00
2023-04-21T21:46:31.557Z,16.79
2023-04-21T21:48:58.172Z,17.11
2023-04-21T21:51:24.886Z,17.09
2023-04-21T21:53:51.669Z,17.13
2023-04-21T21:56:18.209Z,17.29
2023-04-21T21:58:44.730Z,16.98
2023-04-21T22:01:11.595Z,16.61
2023-04-21T22:03:38.541Z,17.30
2023-04-21T22:06:06.203Z,17.26
2023-04-21T22:08:32.965Z,17.20
2023-04-21T22:10:59.947Z,17.42
2023-04-21T22:13:26.852Z,17.26
2023-04-21T22:15:53.659Z,17.12
2023-04-21T22:18:21.062Z,17.27
2023-04-21T22:20:47.754Z,17.08
2023-04-21T22:23:14.657Z,17.22
2023-04-21T22:25:41.245Z,16.78
2023-04-21T22:28:07.861Z,17.02
2023-04-21T22:30:34.459Z,17.12
2023-04-21T22:33:01.284Z,16.92
2023-04-21T22:35:27.916Z,16.64
2023-04-21T22:37:54.477Z,16.70
2023-04-21T22:40:21.268Z,16.48
2023-04-21T22:42:47.966Z,16.92
2023-04-21T22:45:14.708Z,16.50
2023-04-21T22:47:41.413Z,16.54
2023-04-21T22:50:09.379Z,16.56
2023-04-21T22:52:36.428Z,16.84
2023-04-21T22:55:05.136Z,16.76
2023-04-21T22:57:32.556Z,16.71
2023-04-21T22:59:59.240Z,16.62
2023-04-21T23:02:26.592Z,16.46
2023-04-21T23:04:54.293Z,16.52
2023-04-21T23:07:21.316Z,16.15
2023-04-21T23:09:48.335Z,16.27
2023-04-21T23:12:14.817Z,16.54
2023-04-21T23:14:41.312Z,16.50
2023-04-21T23:17:07.856Z,16.48
2023-04-21T23:19:34.498Z,16.46
2023-04-21T23:22:01.092Z,16.32
2023-04-21T23:24:28.071Z,15.52
2023-04-21T23:26:54.701Z,16.26
2023-04-21T23:29:21.558Z,16.18
2023-04-21T23:31:48.156Z,16.40
2023-04-21T23:34:15.412Z,16.21
2023-04-21T23:36:42.138Z,16.13
2023-04-21T23:39:09.898Z,16.08
2023-04-21T23:41:36.562Z,16.16
2023-04-21T23:44:03.083Z,15.79
2023-04-21T23:46:29.707Z,15.60
2023-04-21T23:48:56.347Z,15.85
2023-04-21T23:51:23.123Z,15.92
2023-04-21T23:53:49.844Z,15.78
2023-04-21T23:56:17.105Z,15.33
2023-04-21T23:58:43.743Z,15.48
